createdAt,value
2019-02-21T00:00:04.289Z,28.55
2019-02-21T00:02:32.870Z,36.13
2019-02-21T00:05:01.434Z,36.48
2019-02-21T00:07:30.023Z,31.60
2019-02-21T00:09:58.587Z,30.45
2019-02-21T00:12:27.170Z,36.05
2019-02-21T00:14:55.744Z,32.80
2019-02-21T00:17:24.307Z,36.30
2019-02-21T00:19:52.983Z,34.35
2019-02-21T00:22:21.562Z,31.17
2019-02-21T00:24:50.148Z,33.02
2019-02-21T00:27:18.990Z,36.15
2019-02-21T00:29:47.747Z,32.20
2019-02-21T00:32:16.306Z,33.65
2019-02-21T00:34:44.895Z,31.48
2019-02-21T00:37:13.459Z,34.85
2019-02-21T00:39:42.046Z,44.27
2019-02-21T00:42:10.618Z,32.88
2019-02-21T00:44:39.207Z,33.88
2019-02-21T00:47:07.777Z,35.65
2019-02-21T00:49:36.360Z,29.37
2019-02-21T00:52:04.925Z,35.65
2019-02-21T00:54:33.508Z,33.13
2019-02-21T00:57:02.070Z,36.20
2019-02-21T00:59:30.665Z,41.35
2019-02-21T01:01:59.227Z,34.85
2019-02-21T01:04:27.810Z,34.75
2019-02-21T01:06:56.383Z,34.03
2019-02-21T01:09:25.043Z,37.73
2019-02-21T01:11:53.779Z,35.45
2019-02-21T01:14:22.364Z,43.45
2019-02-21T01:16:50.930Z,36.23
2019-02-21T01:19:19.531Z,35.95
2019-02-21T01:21:48.155Z,31.95
2019-02-21T01:24:17.019Z,38.13
2019-02-21T01:26:45.578Z,43.35
2019-02-21T01:29:14.235Z,42.70
2019-02-21T01:31:42.807Z,33.53
2019-02-21T01:34:11.391Z,32.38
2019-02-21T01:36:39.959Z,35.88
2019-02-21T01:39:08.610Z,38.02
2019-02-21T01:41:37.174Z,38.25
2019-02-21T01:44:05.762Z,33.95
2019-02-21T01:46:34.335Z,33.38
2019-02-21T01:49:02.920Z,37.45
2019-02-21T01:51:31.496Z,34.05
2019-02-21T01:54:00.082Z,33.33
2019-02-21T01:56:28.667Z,36.35
2019-02-21T01:58:57.248Z,37.13
2019-02-21T02:01:25.831Z,34.38
2019-02-21T02:03:54.423Z,36.80
2019-02-21T02:06:22.997Z,38.55
2019-02-21T02:08:51.655Z,41.70
2019-02-21T02:11:20.228Z,38.73
2019-02-21T02:13:48.827Z,35.83
2019-02-21T02:16:17.399Z,31.25
2019-02-21T02:18:45.999Z,38.28
2019-02-21T02:21:14.574Z,35.75
2019-02-21T02:23:43.163Z,35.63
2019-02-21T02:26:11.739Z,41.58
2019-02-21T02:28:40.327Z,40.63
2019-02-21T02:31:21.495Z,36.25
2019-02-21T02:33:39.144Z,41.58
2019-02-21T02:36:07.711Z,33.67
2019-02-21T02:38:36.386Z,35.88
2019-02-21T02:41:04.888Z,41.70
2019-02-21T02:43:33.456Z,40.75
2019-02-21T02:46:02.041Z,37.10
2019-02-21T02:48:30.604Z,40.48
2019-02-21T02:50:59.186Z,55.55
2019-02-21T02:53:27.758Z,38.20
2019-02-21T02:55:56.355Z,39.73
2019-02-21T02:58:24.920Z,42.95
2019-02-21T03:00:53.505Z,44.33
2019-02-21T03:03:22.212Z,38.05
2019-02-21T03:05:50.794Z,31.48
2019-02-21T03:08:19.367Z,34.03
2019-02-21T03:10:47.948Z,45.45
2019-02-21T03:13:16.519Z,41.33
2019-02-21T03:15:45.118Z,47.40
2019-02-21T03:18:13.679Z,39.38
2019-02-21T03:20:42.264Z,43.13
2019-02-21T03:23:10.831Z,66.85
2019-02-21T03:25:39.418Z,65.30
2019-02-21T03:28:07.993Z,64.55
2019-02-21T03:30:36.605Z,56.98
2019-02-21T03:33:05.157Z,61.63
2019-02-21T03:35:33.743Z,47.60
2019-02-21T03:38:02.311Z,47.20
2019-02-21T03:40:30.973Z,45.98
2019-02-21T03:42:59.542Z,41.02
2019-02-21T03:45:28.140Z,48.17
2019-02-21T03:47:56.719Z,53.00
2019-02-21T03:50:25.316Z,38.92
2019-02-21T03:52:53.888Z,42.20
2019-02-21T03:55:22.476Z,35.38
2019-02-21T03:57:51.036Z,40.55
2019-02-21T04:00:19.631Z,40.80
2019-02-21T04:02:48.195Z,36.10
2019-02-21T04:05:16.809Z,39.92
2019-02-21T04:07:45.356Z,47.25
2019-02-21T04:10:13.938Z,47.50
2019-02-21T04:12:42.512Z,46.30
2019-02-21T04:15:12.863Z,48.63
2019-02-21T04:17:41.439Z,51.63
2019-02-21T04:20:10.568Z,47.25
2019-02-21T04:22:39.127Z,42.83
2019-02-21T04:25:07.788Z,43.92
2019-02-21T04:27:36.355Z,49.27
2019-02-21T04:30:05.801Z,51.68
2019-02-21T04:32:34.356Z,45.28
2019-02-21T04:35:02.940Z,47.10
2019-02-21T04:37:31.499Z,39.65
2019-02-21T04:40:00.318Z,40.43
2019-02-21T04:42:28.992Z,46.33
2019-02-21T04:44:57.542Z,37.00
2019-02-21T04:47:26.111Z,50.45
2019-02-21T04:49:54.703Z,37.42
2019-02-21T04:52:23.272Z,55.80
2019-02-21T04:54:51.867Z,46.85
2019-02-21T04:57:20.449Z,41.75
2019-02-21T04:59:49.111Z,43.73
2019-02-21T05:02:28.185Z,51.23
2019-02-21T05:04:47.923Z,39.45
2019-02-21T05:07:16.491Z,42.62
2019-02-21T05:09:56.998Z,43.42
2019-02-21T05:12:15.305Z,52.95
2019-02-21T05:14:43.856Z,41.45
2019-02-21T05:17:12.439Z,50.35
2019-02-21T05:19:41.004Z,49.75
2019-02-21T05:22:09.592Z,45.03
2019-02-21T05:24:38.220Z,42.27
2019-02-21T05:27:10.801Z,39.08
2019-02-21T05:29:39.376Z,48.08
2019-02-21T05:32:12.420Z,44.42
2019-02-21T05:34:42.626Z,47.25
2019-02-21T05:37:12.860Z,40.65
2019-02-21T05:39:54.961Z,57.27
2019-02-21T05:42:29.975Z,42.67
2019-02-21T05:45:15.196Z,37.25
2019-02-21T05:47:54.588Z,36.58
2019-02-21T05:50:33.644Z,49.08
2019-02-21T05:53:12.900Z,59.73
2019-02-21T05:55:57.912Z,48.75
2019-02-21T05:58:30.933Z,49.27
2019-02-21T06:01:06.859Z,49.05
2019-02-21T06:03:43.303Z,46.50
2019-02-21T06:06:17.302Z,63.08
2019-02-21T06:08:56.959Z,52.05
2019-02-21T06:11:27.182Z,59.20
2019-02-21T06:13:57.389Z,57.43
2019-02-21T06:16:32.649Z,55.23
2019-02-21T06:19:10.828Z,50.03
2019-02-21T06:22:09.693Z,43.17
2019-02-21T06:24:35.150Z,50.45
2019-02-21T06:27:14.163Z,42.93
2019-02-21T06:29:44.376Z,50.60
2019-02-21T06:32:14.452Z,57.48
2019-02-21T06:34:43.344Z,54.27
2019-02-21T06:37:12.788Z,49.60
2019-02-21T06:39:41.505Z,50.50
2019-02-21T06:42:10.091Z,54.38
2019-02-21T06:44:38.658Z,43.33
2019-02-21T06:47:07.244Z,44.98
2019-02-21T06:49:35.807Z,48.55
2019-02-21T06:52:04.391Z,48.45
2019-02-21T06:54:32.965Z,62.67
2019-02-21T06:57:01.543Z,63.80
2019-02-21T06:59:30.107Z,68.90
2019-02-21T07:01:58.699Z,66.75
2019-02-21T07:04:27.263Z,66.12
2019-02-21T07:06:56.845Z,78.17
2019-02-21T07:09:25.627Z,72.97
2019-02-21T07:11:54.202Z,74.95
2019-02-21T07:14:22.792Z,63.08
2019-02-21T07:16:51.362Z,60.73
2019-02-21T07:19:19.931Z,59.63
2019-02-21T07:21:48.522Z,48.90
2019-02-21T07:24:18.138Z,48.83
2019-02-21T07:26:46.779Z,52.08
2019-02-21T07:29:15.341Z,60.33
2019-02-21T07:31:43.934Z,57.58
2019-02-21T07:34:12.495Z,55.20
2019-02-21T07:36:41.085Z,54.58
2019-02-21T07:39:17.182Z,48.85
2019-02-21T07:41:41.690Z,48.92
2019-02-21T07:44:12.361Z,46.75
2019-02-21T07:46:40.425Z,51.70
2019-02-21T07:49:08.982Z,61.13
2019-02-21T07:51:37.568Z,63.13
2019-02-21T07:54:06.205Z,61.50
2019-02-21T07:56:41.880Z,82.25
2019-02-21T07:59:04.996Z,71.87
2019-02-21T08:01:33.579Z,76.72
2019-02-21T08:04:02.170Z,69.85
2019-02-21T08:06:30.749Z,63.60
2019-02-21T08:08:59.316Z,79.92
2019-02-21T08:11:27.907Z,59.30
2019-02-21T08:13:56.482Z,75.35
2019-02-21T08:16:25.072Z,55.15
2019-02-21T08:18:53.631Z,58.05
2019-02-21T08:21:22.215Z,56.15
2019-02-21T08:23:51.107Z,63.45
2019-02-21T08:26:20.195Z,53.63
2019-02-21T08:28:48.948Z,60.23
2019-02-21T08:31:17.518Z,53.33
2019-02-21T08:33:58.465Z,68.30
2019-02-21T08:36:20.899Z,62.45
2019-02-21T08:38:49.471Z,67.05
2019-02-21T08:41:18.051Z,64.58
2019-02-21T08:43:46.638Z,56.42
2019-02-21T08:46:18.025Z,58.75
2019-02-21T08:48:47.790Z,56.37
2019-02-21T08:51:18.176Z,54.93
2019-02-21T08:53:45.898Z,58.65
2019-02-21T08:56:14.467Z,58.05
2019-02-21T08:58:43.072Z,61.45
2019-02-21T09:01:11.890Z,46.90
2019-02-21T09:03:40.484Z,47.90
2019-02-21T09:06:09.047Z,51.63
2019-02-21T09:08:37.640Z,47.60
2019-02-21T09:11:06.276Z,48.33
2019-02-21T09:13:34.859Z,52.05
2019-02-21T09:16:03.592Z,43.38
2019-02-21T09:18:32.196Z,51.13
2019-02-21T09:21:00.760Z,41.35
2019-02-21T09:23:29.344Z,44.40
2019-02-21T09:25:57.915Z,46.42
2019-02-21T09:28:26.503Z,42.85
2019-02-21T09:30:55.067Z,55.00
2019-02-21T09:33:23.652Z,47.00
2019-02-21T09:35:52.215Z,41.13
2019-02-21T09:38:20.822Z,54.40
2019-02-21T09:40:49.388Z,48.00
2019-02-21T09:43:17.974Z,48.10
2019-02-21T09:45:46.534Z,50.23
2019-02-21T09:48:15.118Z,44.85
2019-02-21T09:50:43.693Z,48.25
2019-02-21T09:53:12.278Z,44.42
2019-02-21T09:55:40.839Z,48.48
2019-02-21T09:58:09.428Z,48.28
2019-02-21T10:00:38.005Z,45.80
2019-02-21T10:03:06.593Z,49.90
2019-02-21T10:05:35.181Z,38.58
2019-02-21T10:08:03.767Z,51.05
2019-02-21T10:10:32.334Z,53.48
2019-02-21T10:13:00.920Z,47.48
2019-02-21T10:15:31.426Z,54.27
2019-02-21T10:17:59.734Z,45.17
2019-02-21T10:20:28.300Z,49.80
2019-02-21T10:22:56.887Z,45.73
2019-02-21T10:25:30.931Z,39.98
2019-02-21T10:27:59.523Z,45.52
2019-02-21T10:30:28.226Z,42.60
2019-02-21T10:32:56.814Z,42.00
2019-02-21T10:35:25.455Z,42.30
2019-02-21T10:37:54.048Z,37.88
2019-02-21T10:40:22.681Z,36.77
2019-02-21T10:42:51.304Z,39.75
2019-02-21T10:45:21.510Z,47.43
2019-02-21T10:47:50.167Z,41.25
2019-02-21T10:50:19.883Z,43.35
2019-02-21T10:52:48.843Z,55.25
2019-02-21T10:55:18.435Z,42.95
2019-02-21T10:57:47.159Z,43.20
2019-02-21T11:00:25.014Z,46.13
2019-02-21T11:02:53.671Z,47.85
2019-02-21T11:05:22.239Z,51.00
2019-02-21T11:07:50.822Z,45.65
2019-02-21T11:10:22.463Z,37.33
2019-02-21T11:12:51.057Z,38.05
2019-02-21T11:15:21.877Z,43.83
2019-02-21T11:17:50.456Z,39.98
2019-02-21T11:20:19.874Z,47.62
2019-02-21T11:22:48.442Z,35.25
2019-02-21T11:25:17.085Z,38.60
2019-02-21T11:27:45.676Z,36.30
2019-02-21T11:30:16.744Z,36.00
2019-02-21T11:32:45.324Z,40.63
2019-02-21T11:35:14.374Z,43.80
2019-02-21T11:37:46.799Z,37.28
2019-02-21T11:40:15.486Z,44.55
2019-02-21T11:42:44.497Z,42.83
2019-02-21T11:45:20.491Z,37.98
2019-02-21T11:47:49.082Z,36.28
2019-02-21T11:50:20.662Z,32.00
2019-02-21T11:52:49.254Z,33.20
2019-02-21T11:55:27.003Z,32.53
2019-02-21T11:57:55.588Z,35.73
2019-02-21T12:00:28.790Z,33.98
2019-02-21T12:02:57.458Z,36.50
2019-02-21T12:05:31.521Z,29.23
2019-02-21T12:07:56.222Z,33.23
2019-02-21T12:10:24.817Z,37.42
2019-02-21T12:12:53.380Z,38.92
2019-02-21T12:15:21.982Z,34.75
2019-02-21T12:17:50.551Z,35.80
2019-02-21T12:20:20.075Z,29.87
2019-02-21T12:22:48.648Z,36.58
2019-02-21T12:25:20.321Z,33.30
2019-02-21T12:27:48.884Z,39.05
2019-02-21T12:30:18.824Z,35.83
2019-02-21T12:32:47.520Z,40.90
2019-02-21T12:35:16.174Z,32.30
2019-02-21T12:37:44.735Z,38.98
2019-02-21T12:40:16.031Z,38.20
2019-02-21T12:42:44.599Z,34.88
2019-02-21T12:45:15.607Z,34.18
2019-02-21T12:47:50.801Z,36.28
2019-02-21T12:50:14.675Z,41.60
2019-02-21T12:52:43.239Z,34.05
2019-02-21T12:55:12.267Z,33.20
2019-02-21T12:57:40.827Z,36.15
2019-02-21T13:00:17.780Z,36.10
2019-02-21T13:02:46.352Z,37.83
2019-02-21T13:05:15.009Z,31.33
2019-02-21T13:07:43.581Z,42.50
2019-02-21T13:10:19.787Z,36.17
2019-02-21T13:12:48.425Z,39.70
2019-02-21T13:15:16.936Z,33.42
2019-02-21T13:17:45.501Z,42.78
2019-02-21T13:20:15.222Z,34.38
2019-02-21T13:22:43.867Z,37.48
2019-02-21T13:25:14.387Z,42.35
2019-02-21T13:27:42.955Z,39.92
2019-02-21T13:30:13.979Z,32.60
2019-02-21T13:32:42.546Z,33.48
2019-02-21T13:35:11.483Z,40.80
2019-02-21T13:37:40.118Z,37.48
2019-02-21T13:40:13.978Z,31.65
2019-02-21T13:42:42.608Z,31.90
2019-02-21T13:45:13.435Z,36.98
2019-02-21T13:47:42.012Z,41.68
2019-02-21T13:50:15.343Z,34.83
2019-02-21T13:52:43.906Z,34.75
2019-02-21T13:55:12.642Z,40.83
2019-02-21T13:57:41.218Z,38.38
2019-02-21T14:00:18.160Z,32.08
2019-02-21T14:02:46.720Z,30.12
2019-02-21T14:05:15.307Z,36.50
2019-02-21T14:07:43.877Z,28.17
2019-02-21T14:10:13.707Z,27.80
2019-02-21T14:12:42.276Z,31.30
2019-02-21T14:15:14.004Z,32.13
2019-02-21T14:17:42.571Z,29.70
2019-02-21T14:20:11.223Z,28.32
2019-02-21T14:22:39.788Z,26.73
2019-02-21T14:25:11.015Z,30.35
2019-02-21T14:27:39.595Z,28.02
2019-02-21T14:30:18.815Z,27.05
2019-02-21T14:32:47.382Z,26.93
2019-02-21T14:35:16.316Z,27.82
2019-02-21T14:37:44.866Z,31.50
2019-02-21T14:40:17.532Z,26.00
2019-02-21T14:42:46.051Z,28.67
2019-02-21T14:45:20.052Z,30.48
2019-02-21T14:47:48.615Z,30.12
2019-02-21T14:50:17.275Z,30.50
2019-02-21T14:52:45.838Z,27.58
2019-02-21T14:55:15.371Z,28.15
2019-02-21T14:57:43.940Z,30.40
2019-02-21T15:00:23.206Z,27.05
2019-02-21T15:02:51.850Z,30.20
2019-02-21T15:05:20.831Z,31.87
2019-02-21T15:07:49.463Z,27.85
2019-02-21T15:10:18.052Z,34.18
2019-02-21T15:12:46.701Z,28.65
2019-02-21T15:15:17.995Z,35.15
2019-02-21T15:17:46.572Z,28.07
2019-02-21T15:20:16.603Z,28.98
2019-02-21T15:22:45.209Z,32.73
2019-02-21T15:25:14.023Z,29.07
2019-02-21T15:27:42.591Z,33.05
2019-02-21T15:30:14.125Z,31.60
2019-02-21T15:32:44.814Z,31.35
2019-02-21T15:35:13.089Z,30.50
2019-02-21T15:37:41.661Z,30.62
2019-02-21T15:40:10.588Z,33.98
2019-02-21T15:42:39.148Z,32.00
2019-02-21T15:45:22.407Z,35.08
2019-02-21T15:47:44.588Z,33.38
2019-02-21T15:50:14.319Z,35.05
2019-02-21T15:52:44.027Z,42.30
2019-02-21T15:55:14.958Z,33.58
2019-02-21T15:57:43.523Z,32.50
2019-02-21T16:00:19.646Z,36.63
2019-02-21T16:02:48.204Z,30.65
2019-02-21T16:05:16.796Z,31.40
2019-02-21T16:07:45.363Z,29.92
2019-02-21T16:10:22.776Z,31.12
2019-02-21T16:12:51.633Z,30.40
2019-02-21T16:15:20.341Z,30.72
2019-02-21T16:17:48.909Z,37.75
2019-02-21T16:20:19.711Z,29.77
2019-02-21T16:22:48.342Z,29.00
2019-02-21T16:25:31.277Z,29.80
2019-02-21T16:27:59.769Z,33.85
2019-02-21T16:30:28.370Z,37.23
2019-02-21T16:32:56.932Z,37.63
2019-02-21T16:35:27.307Z,37.88
2019-02-21T16:37:55.739Z,32.70
2019-02-21T16:40:24.324Z,41.23
2019-02-21T16:42:52.897Z,32.38
2019-02-21T16:45:22.620Z,35.90
2019-02-21T16:47:51.338Z,29.02
2019-02-21T16:50:29.443Z,34.00
2019-02-21T16:52:50.141Z,33.40
2019-02-21T16:55:20.938Z,36.65
2019-02-21T16:57:49.504Z,42.78
2019-02-21T17:00:21.902Z,32.20
2019-02-21T17:02:50.460Z,30.43
2019-02-21T17:05:19.053Z,39.03
2019-02-21T17:07:47.611Z,28.80
2019-02-21T17:10:17.185Z,37.38
2019-02-21T17:12:45.841Z,35.33
2019-02-21T17:15:15.982Z,31.52
2019-02-21T17:17:44.702Z,34.48
2019-02-21T17:20:24.018Z,31.75
2019-02-21T17:22:52.652Z,28.65
2019-02-21T17:25:21.157Z,28.23
2019-02-21T17:27:50.612Z,31.70
2019-02-21T17:30:19.715Z,24.43
2019-02-21T17:32:48.294Z,30.43
2019-02-21T17:35:16.927Z,33.05
2019-02-21T17:37:45.521Z,32.48
2019-02-21T17:40:17.172Z,34.15
2019-02-21T17:42:45.829Z,35.83
2019-02-21T17:45:14.466Z,31.45
2019-02-21T17:47:43.078Z,33.33
2019-02-21T17:50:13.882Z,33.55
2019-02-21T17:52:42.469Z,39.70
2019-02-21T17:55:11.576Z,38.02
2019-02-21T17:57:40.235Z,47.75
2019-02-21T18:00:11.875Z,44.98
2019-02-21T18:02:40.463Z,51.08
2019-02-21T18:05:10.368Z,58.35
2019-02-21T18:07:39.027Z,49.95
2019-02-21T18:10:11.241Z,58.28
2019-02-21T18:12:39.822Z,65.22
2019-02-21T18:15:10.630Z,65.20
2019-02-21T18:17:39.229Z,58.58
2019-02-21T18:20:10.640Z,72.08
2019-02-21T18:22:39.228Z,64.07
2019-02-21T18:25:13.460Z,73.40
2019-02-21T18:27:42.051Z,68.10
2019-02-21T18:30:13.836Z,102.62
2019-02-21T18:32:42.440Z,196.37
2019-02-21T18:35:11.751Z,418.35
2019-02-21T18:37:47.418Z,117.80
2019-02-21T18:40:17.167Z,64.20
2019-02-21T18:42:43.704Z,62.27
2019-02-21T18:45:12.403Z,65.62
2019-02-21T18:47:40.994Z,57.98
2019-02-21T18:50:12.203Z,59.42
2019-02-21T18:52:40.786Z,56.33
2019-02-21T18:55:09.899Z,63.45
2019-02-21T18:57:38.487Z,58.42
2019-02-21T19:00:09.878Z,60.58
2019-02-21T19:02:38.458Z,66.62
2019-02-21T19:05:08.071Z,58.28
2019-02-21T19:07:36.663Z,60.08
2019-02-21T19:10:10.871Z,56.05
2019-02-21T19:12:39.463Z,52.25
2019-02-21T19:15:10.430Z,58.65
2019-02-21T19:17:39.116Z,61.23
2019-02-21T19:20:12.593Z,68.47
2019-02-21T19:22:41.123Z,64.70
2019-02-21T19:25:11.036Z,67.37
2019-02-21T19:27:39.763Z,70.15
2019-02-21T19:30:14.566Z,92.88
2019-02-21T19:32:43.229Z,75.12
2019-02-21T19:35:11.800Z,60.12
2019-02-21T19:37:40.379Z,66.22
2019-02-21T19:40:10.283Z,58.87
2019-02-21T19:42:38.883Z,80.55
2019-02-21T19:45:08.891Z,64.17
2019-02-21T19:47:37.471Z,68.83
2019-02-21T19:50:09.876Z,65.95
2019-02-21T19:52:38.531Z,73.57
2019-02-21T19:55:09.239Z,72.30
2019-02-21T19:57:37.981Z,72.10
2019-02-21T20:00:16.379Z,73.40
2019-02-21T20:02:44.999Z,82.70
2019-02-21T20:05:14.703Z,77.75
2019-02-21T20:07:43.288Z,79.20
2019-02-21T20:10:11.859Z,84.42
2019-02-21T20:12:43.569Z,88.85
2019-02-21T20:15:12.747Z,86.75
2019-02-21T20:17:41.403Z,83.35
2019-02-21T20:20:21.223Z,83.47
2019-02-21T20:22:49.825Z,86.37
2019-02-21T20:25:18.392Z,77.65
2019-02-21T20:27:46.979Z,86.87
2019-02-21T20:30:17.655Z,87.72
2019-02-21T20:32:46.250Z,82.80
2019-02-21T20:35:15.291Z,87.53
2019-02-21T20:37:44.206Z,99.58
2019-02-21T20:40:12.913Z,98.30
2019-02-21T20:42:41.567Z,95.97
2019-02-21T20:45:15.064Z,98.20
2019-02-21T20:47:43.648Z,101.65
2019-02-21T20:50:15.218Z,101.72
2019-02-21T20:52:43.808Z,107.37
2019-02-21T20:55:12.710Z,114.92
2019-02-21T20:57:41.366Z,116.08
2019-02-21T21:00:15.359Z,113.25
2019-02-21T21:02:44.323Z,131.35
2019-02-21T21:05:12.968Z,123.58
2019-02-21T21:07:41.568Z,119.13
2019-02-21T21:10:14.848Z,119.57
2019-02-21T21:12:43.440Z,121.47
2019-02-21T21:15:14.220Z,114.80
2019-02-21T21:17:42.874Z,130.63
2019-02-21T21:20:17.098Z,124.65
2019-02-21T21:22:45.740Z,132.45
2019-02-21T21:25:20.292Z,139.20
2019-02-21T21:27:48.884Z,131.72
2019-02-21T21:30:18.234Z,127.75
2019-02-21T21:32:46.819Z,143.85
2019-02-21T21:35:15.394Z,141.20
2019-02-21T21:37:43.974Z,142.62
2019-02-21T21:40:15.003Z,156.57
2019-02-21T21:42:43.736Z,150.82
2019-02-21T21:45:18.662Z,163.07
2019-02-21T21:47:47.323Z,151.07
2019-02-21T21:50:17.735Z,160.82
2019-02-21T21:52:46.323Z,135.75
2019-02-21T21:55:15.134Z,156.93
2019-02-21T21:57:44.003Z,168.00
2019-02-21T22:00:23.463Z,146.90
2019-02-21T22:02:52.058Z,162.95
2019-02-21T22:05:20.691Z,153.25
2019-02-21T22:07:49.689Z,161.73
2019-02-21T22:10:18.481Z,180.32
2019-02-21T22:12:47.065Z,185.90
2019-02-21T22:15:18.243Z,204.45
2019-02-21T22:17:46.834Z,206.10
2019-02-21T22:20:15.408Z,203.85
2019-02-21T22:22:43.975Z,213.52
2019-02-21T22:25:13.916Z,211.70
2019-02-21T22:27:42.620Z,169.85
2019-02-21T22:30:21.027Z,217.45
2019-02-21T22:32:49.635Z,211.43
2019-02-21T22:35:18.205Z,228.75
2019-02-21T22:37:46.774Z,180.15
2019-02-21T22:40:17.480Z,211.80
2019-02-21T22:42:46.051Z,241.25
2019-02-21T22:45:14.643Z,171.80
2019-02-21T22:47:43.215Z,238.70
2019-02-21T22:50:14.620Z,221.97
2019-02-21T22:52:43.259Z,251.27
2019-02-21T22:55:11.919Z,240.00
2019-02-21T22:57:40.488Z,275.98
2019-02-21T23:00:31.691Z,291.55
2019-02-21T23:03:01.479Z,200.05
2019-02-21T23:05:52.735Z,319.30
2019-02-21T23:08:42.370Z,325.45
2019-02-21T23:11:11.211Z,301.70
2019-02-21T23:13:39.939Z,233.95
2019-02-21T23:16:08.584Z,308.77
2019-02-21T23:18:37.379Z,320.12
2019-02-21T23:21:05.951Z,272.98
2019-02-21T23:23:34.543Z,281.82
2019-02-21T23:26:03.111Z,185.60
2019-02-21T23:28:31.702Z,294.15
2019-02-21T23:31:00.277Z,323.82
2019-02-21T23:33:29.733Z,185.40
2019-02-21T23:35:58.307Z,210.65
2019-02-21T23:38:27.177Z,257.48
2019-02-21T23:40:55.739Z,253.37
2019-02-21T23:43:24.327Z,276.95
2019-02-21T23:45:52.909Z,306.13
2019-02-21T23:48:21.470Z,301.67
2019-02-21T23:50:50.059Z,341.38
2019-02-21T23:53:18.641Z,320.93
2019-02-21T23:55:47.218Z,309.05
2019-02-21T23:58:15.854Z,312.88
